createdAt,value
2019-03-15T00:00:30.257Z,75.40
2019-03-15T00:03:00.717Z,75.10
2019-03-15T00:05:29.461Z,75.10
2019-03-15T00:07:58.254Z,75.40
2019-03-15T00:10:26.985Z,75.30
2019-03-15T00:12:55.843Z,75.30
2019-03-15T00:15:24.722Z,75.20
2019-03-15T00:17:53.458Z,75.20
2019-03-15T00:20:22.247Z,75.20
2019-03-15T00:22:52.583Z,75.80
2019-03-15T00:25:21.383Z,75.80
2019-03-15T00:27:50.185Z,75.60
2019-03-15T00:30:19.000Z,75.40
2019-03-15T00:32:48.126Z,75.10
2019-03-15T00:35:16.940Z,75.10
2019-03-15T00:37:45.717Z,74.80
2019-03-15T00:40:14.763Z,75.30
2019-03-15T00:42:43.553Z,75.80
2019-03-15T00:45:12.497Z,76.00
2019-03-15T00:47:41.240Z,75.70
2019-03-15T00:50:10.734Z,75.80
2019-03-15T00:52:39.510Z,75.80
2019-03-15T00:55:08.295Z,76.00
2019-03-15T00:57:37.074Z,77.50
2019-03-15T01:00:11.605Z,77.30
2019-03-15T01:02:40.347Z,77.30
2019-03-15T01:05:09.149Z,77.80
2019-03-15T01:07:38.013Z,76.90
2019-03-15T01:10:11.001Z,76.40
2019-03-15T01:12:39.794Z,77.00
2019-03-15T01:15:16.027Z,77.30
2019-03-15T01:17:44.814Z,77.90
2019-03-15T01:20:13.602Z,77.60
2019-03-15T01:22:42.395Z,78.00
2019-03-15T01:25:12.234Z,78.10
2019-03-15T01:27:41.052Z,78.50
2019-03-15T01:30:11.773Z,78.70
2019-03-15T01:32:40.558Z,79.10
2019-03-15T01:35:09.445Z,79.40
2019-03-15T01:37:38.343Z,79.40
2019-03-15T01:40:08.336Z,79.50
2019-03-15T01:42:37.124Z,79.30
2019-03-15T01:45:06.881Z,78.90
2019-03-15T01:47:35.673Z,78.40
2019-03-15T01:50:06.779Z,78.20
2019-03-15T01:52:35.618Z,77.90
2019-03-15T01:55:05.115Z,78.40
2019-03-15T01:57:33.845Z,78.40
2019-03-15T02:00:02.694Z,79.20
2019-03-15T02:02:32.564Z,79.40
2019-03-15T02:05:01.286Z,79.40
2019-03-15T02:07:30.149Z,80.20
2019-03-15T02:09:58.874Z,80.20
2019-03-15T02:12:27.674Z,80.80
2019-03-15T02:14:56.441Z,81.40
2019-03-15T02:17:25.118Z,82.50
2019-03-15T02:19:53.829Z,82.60
2019-03-15T02:22:22.669Z,82.80
2019-03-15T02:24:51.471Z,82.80
2019-03-15T02:27:20.259Z,82.80
2019-03-15T02:29:49.047Z,82.40
2019-03-15T02:32:17.906Z,83.00
2019-03-15T02:34:46.767Z,82.80
2019-03-15T02:37:15.618Z,82.90
2019-03-15T02:39:45.531Z,82.80
2019-03-15T02:42:14.888Z,82.70
2019-03-15T02:44:43.715Z,82.70
2019-03-15T02:47:12.500Z,83.00
2019-03-15T02:49:41.311Z,83.00
2019-03-15T02:52:10.088Z,82.60
2019-03-15T02:54:38.793Z,82.40
2019-03-15T02:57:08.689Z,82.60
2019-03-15T02:59:37.558Z,82.80
2019-03-15T03:02:06.341Z,82.90
2019-03-15T03:04:35.063Z,83.40
2019-03-15T03:07:03.829Z,83.40
2019-03-15T03:09:33.658Z,83.70
2019-03-15T03:12:02.962Z,83.40
2019-03-15T03:14:31.894Z,83.50
2019-03-15T03:17:00.694Z,83.60
2019-03-15T03:19:29.417Z,83.50
2019-03-15T03:21:58.322Z,83.40
2019-03-15T03:24:27.056Z,83.20
2019-03-15T03:26:55.875Z,83.70
2019-03-15T03:29:25.900Z,83.60
2019-03-15T03:31:55.668Z,83.50
2019-03-15T03:34:24.485Z,83.20
2019-03-15T03:36:57.591Z,83.90
2019-03-15T03:39:23.701Z,84.10
2019-03-15T03:41:53.598Z,84.40
2019-03-15T03:44:22.447Z,84.10
2019-03-15T03:46:51.248Z,84.50
2019-03-15T03:49:20.043Z,84.80
2019-03-15T03:51:48.879Z,85.10
2019-03-15T03:54:17.739Z,86.40
2019-03-15T03:56:46.551Z,87.30
2019-03-15T03:59:16.567Z,86.90
2019-03-15T04:01:45.355Z,86.50
2019-03-15T04:04:14.206Z,87.10
2019-03-15T04:06:43.088Z,87.60
2019-03-15T04:09:11.872Z,87.60
2019-03-15T04:11:54.266Z,88.40
2019-03-15T04:14:12.240Z,89.00
2019-03-15T04:16:40.967Z,89.20
2019-03-15T04:19:09.765Z,90.00
2019-03-15T04:21:38.685Z,90.10
2019-03-15T04:24:07.476Z,90.10
2019-03-15T04:26:36.365Z,90.90
2019-03-15T04:29:05.218Z,91.00
2019-03-15T04:31:33.934Z,91.20
2019-03-15T04:34:03.865Z,91.50
2019-03-15T04:36:32.683Z,91.60
2019-03-15T04:39:01.400Z,91.70
2019-03-15T04:41:30.299Z,91.70
2019-03-15T04:43:58.997Z,91.90
2019-03-15T04:46:27.708Z,91.80
2019-03-15T04:48:56.431Z,91.80
2019-03-15T04:51:25.186Z,92.00
2019-03-15T04:53:53.986Z,91.60
2019-03-15T04:56:22.702Z,91.60
2019-03-15T04:58:51.574Z,91.60
2019-03-15T05:01:20.361Z,91.90
2019-03-15T05:03:49.213Z,92.20
2019-03-15T05:06:19.534Z,92.10
2019-03-15T05:08:48.327Z,92.30
2019-03-15T05:11:17.181Z,92.30
2019-03-15T05:13:47.086Z,92.50
2019-03-15T05:16:16.177Z,92.60
2019-03-15T05:18:44.968Z,92.90
2019-03-15T05:21:16.743Z,93.20
2019-03-15T05:23:45.493Z,93.20
2019-03-15T05:26:14.281Z,93.30
2019-03-15T05:28:44.764Z,93.50
2019-03-15T05:31:13.564Z,93.30
2019-03-15T05:33:42.291Z,92.90
2019-03-15T05:36:11.082Z,92.60
2019-03-15T05:38:41.914Z,92.70
2019-03-15T05:41:10.819Z,92.80
2019-03-15T05:43:39.648Z,92.70
2019-03-15T05:46:08.585Z,92.50
2019-03-15T05:48:37.398Z,92.40
2019-03-15T05:51:06.229Z,92.70
2019-03-15T05:53:35.042Z,92.50
2019-03-15T05:56:03.840Z,92.70
2019-03-15T05:58:32.717Z,92.90
2019-03-15T06:01:01.523Z,92.90
2019-03-15T06:03:30.309Z,92.90
2019-03-15T06:05:59.191Z,92.90
2019-03-15T06:08:28.014Z,92.80
2019-03-15T06:10:58.109Z,92.80
2019-03-15T06:13:27.064Z,93.10
2019-03-15T06:15:55.895Z,93.20
2019-03-15T06:18:24.598Z,93.20
2019-03-15T06:20:53.479Z,93.10
2019-03-15T06:23:22.209Z,93.00
2019-03-15T06:25:50.933Z,93.00
2019-03-15T06:28:19.784Z,93.00
2019-03-15T06:30:48.507Z,93.10
2019-03-15T06:33:17.169Z,93.00
2019-03-15T06:35:46.584Z,93.00
2019-03-15T06:38:15.426Z,93.20
2019-03-15T06:40:44.209Z,93.10
2019-03-15T06:43:13.759Z,93.10
2019-03-15T06:45:42.716Z,93.10
2019-03-15T06:48:11.532Z,93.10
2019-03-15T06:50:40.406Z,93.00
2019-03-15T06:53:09.213Z,93.00
2019-03-15T06:55:38.063Z,92.90
2019-03-15T06:58:06.998Z,92.90
2019-03-15T07:00:35.819Z,92.90
2019-03-15T07:03:06.102Z,93.00
2019-03-15T07:05:34.953Z,92.90
2019-03-15T07:08:03.793Z,92.90
2019-03-15T07:10:32.602Z,93.00
2019-03-15T07:13:01.468Z,93.30
2019-03-15T07:15:30.269Z,92.80
2019-03-15T07:17:59.093Z,92.80
2019-03-15T07:20:27.979Z,92.90
2019-03-15T07:22:56.849Z,92.90
2019-03-15T07:25:25.764Z,92.90
2019-03-15T07:27:54.578Z,92.90
2019-03-15T07:30:23.469Z,92.70
2019-03-15T07:32:52.307Z,92.80
2019-03-15T07:35:21.125Z,92.90
2019-03-15T07:37:49.936Z,92.90
2019-03-15T07:40:28.888Z,92.90
2019-03-15T07:43:02.007Z,92.80
2019-03-15T07:45:28.364Z,92.60
2019-03-15T07:47:57.226Z,92.50
2019-03-15T07:50:25.989Z,92.60
2019-03-15T07:52:54.765Z,92.60
2019-03-15T07:55:23.697Z,92.50
2019-03-15T07:57:52.426Z,92.60
2019-03-15T08:00:21.151Z,92.20
2019-03-15T08:02:50.019Z,92.30
2019-03-15T08:05:18.823Z,92.30
2019-03-15T08:07:50.773Z,92.00
2019-03-15T08:10:19.746Z,92.10
2019-03-15T08:12:49.980Z,92.20
2019-03-15T08:15:18.873Z,92.30
2019-03-15T08:17:50.946Z,92.30
2019-03-15T08:20:19.734Z,92.40
2019-03-15T08:22:51.848Z,92.30
2019-03-15T08:25:21.224Z,92.00
2019-03-15T08:27:50.082Z,92.00
2019-03-15T08:30:19.495Z,92.20
2019-03-15T08:32:49.194Z,92.20
2019-03-15T08:35:17.997Z,92.40
2019-03-15T08:37:46.733Z,92.30
2019-03-15T08:40:15.932Z,92.20
2019-03-15T08:43:02.732Z,92.20
2019-03-15T08:45:31.626Z,92.40
2019-03-15T08:48:00.663Z,92.40
2019-03-15T08:50:41.623Z,92.40
2019-03-15T08:53:12.915Z,92.50
2019-03-15T08:55:42.001Z,92.70
2019-03-15T08:58:15.343Z,92.60
2019-03-15T09:00:41.317Z,92.20
2019-03-15T09:03:10.313Z,92.30
2019-03-15T09:05:39.193Z,92.20
2019-03-15T09:08:08.005Z,92.30
2019-03-15T09:10:37.584Z,92.00
2019-03-15T09:13:06.460Z,92.00
2019-03-15T09:15:35.432Z,92.20
2019-03-15T09:18:06.111Z,92.00
2019-03-15T09:20:35.009Z,92.00
2019-03-15T09:23:03.905Z,92.00
2019-03-15T09:25:32.816Z,92.00
2019-03-15T09:28:01.706Z,92.30
2019-03-15T09:30:30.550Z,92.30
2019-03-15T09:33:02.943Z,92.40
2019-03-15T09:35:31.842Z,92.20
2019-03-15T09:38:00.727Z,92.20
2019-03-15T09:40:29.660Z,92.50
2019-03-15T09:42:59.994Z,92.60
2019-03-15T09:45:30.835Z,92.50
2019-03-15T09:47:59.994Z,92.50
2019-03-15T09:50:36.017Z,92.50
2019-03-15T09:52:59.345Z,92.30
2019-03-15T09:55:33.090Z,92.50
2019-03-15T09:57:58.835Z,92.40
2019-03-15T10:00:27.601Z,92.30
2019-03-15T10:02:57.593Z,92.00
2019-03-15T10:05:26.482Z,91.90
2019-03-15T10:07:55.286Z,91.50
2019-03-15T10:10:24.177Z,91.60
2019-03-15T10:13:05.042Z,91.40
2019-03-15T10:15:26.222Z,91.40
2019-03-15T10:17:54.076Z,91.10
2019-03-15T10:20:22.878Z,90.80
2019-03-15T10:23:05.495Z,90.80
2019-03-15T10:25:22.299Z,90.70
2019-03-15T10:27:51.099Z,90.60
2019-03-15T10:30:20.918Z,90.60
2019-03-15T10:32:50.231Z,90.90
2019-03-15T10:35:19.038Z,90.20
2019-03-15T10:37:52.301Z,90.20
2019-03-15T10:40:27.242Z,90.00
2019-03-15T10:43:00.666Z,89.70
2019-03-15T10:45:28.623Z,90.00
2019-03-15T10:47:57.539Z,89.70
2019-03-15T10:50:27.042Z,89.70
2019-03-15T10:52:56.891Z,89.60
2019-03-15T10:55:25.828Z,89.70
2019-03-15T10:57:54.727Z,89.30
2019-03-15T11:00:23.686Z,88.60
2019-03-15T11:02:52.751Z,88.70
2019-03-15T11:05:22.150Z,88.50
2019-03-15T11:07:51.854Z,88.20
2019-03-15T11:10:39.442Z,87.70
2019-03-15T11:13:08.330Z,88.10
2019-03-15T11:15:37.110Z,88.00
2019-03-15T11:18:37.460Z,88.30
2019-03-15T11:21:07.403Z,88.00
2019-03-15T11:23:38.305Z,87.10
2019-03-15T11:26:13.480Z,87.60
2019-03-15T11:28:41.679Z,87.20
2019-03-15T11:31:10.706Z,87.20
2019-03-15T11:33:39.541Z,87.40
2019-03-15T11:36:12.367Z,86.70
2019-03-15T11:38:41.677Z,86.70
2019-03-15T11:41:10.492Z,85.90
2019-03-15T11:43:39.506Z,86.30
2019-03-15T11:46:08.349Z,85.50
2019-03-15T11:48:37.189Z,85.30
2019-03-15T11:51:05.972Z,85.70
2019-03-15T11:53:34.808Z,85.30
2019-03-15T11:56:03.619Z,84.80
2019-03-15T11:58:32.654Z,84.60
2019-03-15T12:01:02.204Z,84.40
2019-03-15T12:03:31.008Z,85.10
2019-03-15T12:06:00.498Z,84.50
2019-03-15T12:08:30.702Z,84.30
2019-03-15T12:11:01.330Z,85.00
2019-03-15T12:13:31.139Z,84.60
2019-03-15T12:16:01.359Z,84.10
2019-03-15T12:18:30.228Z,84.20
2019-03-15T12:20:59.355Z,84.30
2019-03-15T12:23:28.242Z,84.20
2019-03-15T12:25:58.607Z,83.50
2019-03-15T12:28:27.574Z,83.30
2019-03-15T12:30:57.604Z,83.20
2019-03-15T12:33:26.487Z,83.90
2019-03-15T12:35:55.354Z,83.80
2019-03-15T12:38:24.266Z,84.00
2019-03-15T12:40:53.093Z,83.50
2019-03-15T12:43:21.807Z,83.80
2019-03-15T12:45:50.655Z,83.60
2019-03-15T12:48:20.189Z,83.30
2019-03-15T12:50:49.056Z,83.60
2019-03-15T12:53:18.608Z,83.50
2019-03-15T12:55:48.051Z,83.40
2019-03-15T12:58:16.871Z,84.60
2019-03-15T13:00:48.589Z,84.80
2019-03-15T13:03:17.308Z,85.30
2019-03-15T13:05:55.301Z,85.80
2019-03-15T13:08:24.214Z,86.90
2019-03-15T13:10:58.473Z,87.50
2019-03-15T13:13:35.770Z,88.10
2019-03-15T13:16:04.698Z,88.70
2019-03-15T13:18:33.564Z,89.30
2019-03-15T13:21:02.438Z,89.40
2019-03-15T13:23:31.217Z,90.00
2019-03-15T13:26:00.123Z,90.00
2019-03-15T13:28:28.920Z,90.30
2019-03-15T13:30:57.856Z,90.00
2019-03-15T13:33:26.737Z,90.00
2019-03-15T13:35:55.645Z,89.40
2019-03-15T13:38:24.622Z,89.80
2019-03-15T13:40:53.514Z,88.20
2019-03-15T13:43:22.392Z,89.20
2019-03-15T13:45:51.350Z,88.50
2019-03-15T13:48:20.863Z,88.10
2019-03-15T13:50:49.701Z,87.70
2019-03-15T13:53:18.556Z,87.80
2019-03-15T13:55:48.462Z,88.00
2019-03-15T13:58:17.273Z,87.80
2019-03-15T14:00:46.269Z,87.40
2019-03-15T14:03:15.110Z,87.30
2019-03-15T14:05:43.990Z,87.60
2019-03-15T14:08:13.026Z,87.60
2019-03-15T14:10:49.191Z,88.00
2019-03-15T14:13:12.378Z,87.80
2019-03-15T14:15:41.321Z,87.50
2019-03-15T14:18:10.620Z,87.40
2019-03-15T14:20:39.485Z,87.40
2019-03-15T14:23:08.360Z,86.80
2019-03-15T14:25:37.230Z,86.60
2019-03-15T14:28:06.032Z,86.60
2019-03-15T14:30:35.010Z,86.90
2019-03-15T14:33:03.914Z,87.20
2019-03-15T14:35:32.846Z,88.00
2019-03-15T14:38:01.965Z,87.80
2019-03-15T14:40:31.000Z,88.60
2019-03-15T14:43:00.142Z,88.00
2019-03-15T14:45:29.214Z,89.10
2019-03-15T14:47:58.024Z,89.70
2019-03-15T14:50:26.910Z,90.50
2019-03-15T14:52:55.857Z,90.70
2019-03-15T14:55:25.628Z,90.80
2019-03-15T14:57:54.946Z,91.00
2019-03-15T15:00:23.812Z,90.90
2019-03-15T15:02:52.645Z,91.20
2019-03-15T15:05:22.137Z,91.20
2019-03-15T15:07:51.169Z,91.40
2019-03-15T15:10:20.154Z,91.30
2019-03-15T15:12:49.668Z,91.60
2019-03-15T15:15:19.736Z,91.50
2019-03-15T15:17:48.768Z,91.70
2019-03-15T15:20:17.553Z,91.50
2019-03-15T15:22:46.400Z,91.70
2019-03-15T15:25:19.006Z,91.80
2019-03-15T15:27:47.948Z,92.10
2019-03-15T15:30:17.915Z,92.20
2019-03-15T15:32:50.427Z,92.10
2019-03-15T15:35:20.382Z,92.10
2019-03-15T15:37:49.444Z,92.10
2019-03-15T15:40:21.211Z,92.20
2019-03-15T15:42:50.070Z,92.10
2019-03-15T15:45:18.871Z,91.90
2019-03-15T15:47:50.172Z,92.20
2019-03-15T15:50:19.137Z,92.20
2019-03-15T15:52:48.005Z,91.90
2019-03-15T15:55:20.017Z,91.90
2019-03-15T15:57:48.901Z,91.90
2019-03-15T16:00:18.497Z,92.20
2019-03-15T16:02:47.279Z,92.00
2019-03-15T16:05:16.234Z,92.10
2019-03-15T16:07:45.490Z,92.10
2019-03-15T16:10:17.724Z,92.20
2019-03-15T16:12:45.529Z,92.10
2019-03-15T16:15:21.949Z,92.00
2019-03-15T16:17:50.862Z,92.20
2019-03-15T16:20:19.709Z,92.20
2019-03-15T16:22:48.757Z,92.10
2019-03-15T16:25:17.570Z,92.10
2019-03-15T16:27:46.398Z,92.10
2019-03-15T16:30:21.961Z,91.90
2019-03-15T16:32:50.902Z,91.90
2019-03-15T16:35:19.814Z,91.70
2019-03-15T16:37:48.891Z,91.60
2019-03-15T16:40:17.741Z,91.60
2019-03-15T16:42:47.540Z,91.70
2019-03-15T16:45:30.333Z,91.70
2019-03-15T16:47:58.994Z,91.60
2019-03-15T16:50:27.779Z,91.80
2019-03-15T16:52:56.760Z,91.70
2019-03-15T16:55:25.583Z,91.70
2019-03-15T16:57:54.909Z,92.00
2019-03-15T17:00:23.805Z,92.20
2019-03-15T17:02:52.590Z,92.20
2019-03-15T17:05:22.875Z,92.10
2019-03-15T17:10:36.104Z,91.90
2019-03-15T17:13:04.993Z,91.60
2019-03-15T17:15:33.907Z,91.70
2019-03-15T17:18:02.811Z,91.60
2019-03-15T17:20:34.885Z,91.60
2019-03-15T17:23:03.712Z,91.90
2019-03-15T17:25:32.581Z,92.00
2019-03-15T17:28:01.465Z,92.30
2019-03-15T17:30:30.263Z,92.20
2019-03-15T17:32:59.317Z,92.10
2019-03-15T17:35:28.091Z,92.20
2019-03-15T17:37:56.857Z,92.10
2019-03-15T17:40:25.681Z,92.00
2019-03-15T17:42:54.532Z,92.00
2019-03-15T17:45:23.433Z,91.80
2019-03-15T17:47:52.210Z,91.90
2019-03-15T17:50:23.293Z,92.00
2019-03-15T17:52:52.743Z,91.80
2019-03-15T17:55:21.633Z,91.50
2019-03-15T17:57:50.529Z,91.60
2019-03-15T18:00:32.463Z,91.70
2019-03-15T18:03:01.366Z,91.80
2019-03-15T18:05:30.264Z,91.60
2019-03-15T18:07:59.056Z,91.50
2019-03-15T18:10:27.991Z,91.50
2019-03-15T18:12:58.964Z,91.50
2019-03-15T18:15:30.378Z,91.50
2019-03-15T18:18:00.189Z,91.70
2019-03-15T18:20:29.849Z,91.30
2019-03-15T18:22:58.840Z,91.10
2019-03-15T18:25:28.878Z,90.80
2019-03-15T18:27:57.717Z,90.80
2019-03-15T18:30:26.583Z,91.00
2019-03-15T18:32:55.473Z,90.90
2019-03-15T18:35:33.487Z,91.00
2019-03-15T18:37:54.884Z,91.10
2019-03-15T18:40:23.758Z,91.00
2019-03-15T18:42:52.613Z,91.00
2019-03-15T18:45:21.574Z,91.00
2019-03-15T18:47:50.392Z,90.90
2019-03-15T18:50:24.914Z,91.00
2019-03-15T18:52:53.811Z,91.30
2019-03-15T18:55:22.658Z,91.40
2019-03-15T18:57:51.533Z,91.60
2019-03-15T19:00:24.644Z,91.50
2019-03-15T19:02:54.126Z,91.60
2019-03-15T19:05:22.933Z,91.70
2019-03-15T19:07:51.810Z,91.80
2019-03-15T19:10:20.809Z,91.70
2019-03-15T19:12:49.605Z,91.70
2019-03-15T19:15:22.055Z,91.70
2019-03-15T19:17:51.060Z,91.60
2019-03-15T19:20:19.998Z,91.40
2019-03-15T19:22:48.897Z,91.60
2019-03-15T19:25:17.777Z,91.60
2019-03-15T19:27:46.602Z,91.20
2019-03-15T19:30:16.928Z,91.20
2019-03-15T19:32:45.801Z,91.20
2019-03-15T19:35:14.658Z,91.20
2019-03-15T19:37:43.511Z,91.00
2019-03-15T19:40:18.490Z,91.10
2019-03-15T19:42:47.342Z,91.10
2019-03-15T19:45:16.943Z,91.10
2019-03-15T19:47:45.840Z,90.90
2019-03-15T19:50:22.288Z,91.10
2019-03-15T19:52:51.123Z,91.30
2019-03-15T19:55:19.953Z,91.10
2019-03-15T19:57:48.835Z,91.00
2019-03-15T20:00:22.464Z,90.80
2019-03-15T20:02:51.293Z,90.80
2019-03-15T20:05:20.082Z,90.90
2019-03-15T20:07:49.193Z,90.90
2019-03-15T20:10:19.663Z,90.80
2019-03-15T20:12:48.542Z,91.00
2019-03-15T20:15:17.574Z,91.10
2019-03-15T20:17:47.986Z,91.20
2019-03-15T20:20:19.652Z,91.30
2019-03-15T20:23:02.780Z,91.30
2019-03-15T20:25:31.526Z,91.20
2019-03-15T20:28:03.907Z,91.30
2019-03-15T20:30:31.418Z,91.40
2019-03-15T20:33:00.692Z,91.10
2019-03-15T20:35:29.651Z,91.10
2019-03-15T20:37:58.550Z,91.00
2019-03-15T20:40:28.954Z,90.80
2019-03-15T20:45:48.719Z,90.90
2019-03-15T20:48:18.887Z,91.00
2019-03-15T20:50:51.380Z,90.80
2019-03-15T20:53:20.323Z,90.80
2019-03-15T20:55:49.346Z,90.80
2019-03-15T20:58:22.171Z,90.80
2019-03-15T21:00:50.620Z,91.00
2019-03-15T21:03:19.491Z,91.30
2019-03-15T21:05:49.679Z,91.50
2019-03-15T21:08:20.154Z,91.30
2019-03-15T21:10:51.555Z,91.00
2019-03-15T21:13:21.056Z,91.00
2019-03-15T21:15:50.994Z,91.00
2019-03-15T21:18:19.946Z,91.30
2019-03-15T21:20:48.917Z,91.40
2019-03-15T21:23:17.895Z,91.50
2019-03-15T21:25:46.794Z,91.50
2019-03-15T21:28:15.828Z,91.30
2019-03-15T21:30:48.608Z,91.30
2019-03-15T21:33:16.498Z,91.50
2019-03-15T21:35:45.369Z,91.20
2019-03-15T21:38:14.259Z,91.00
2019-03-15T21:40:43.067Z,90.90
2019-03-15T21:43:11.883Z,90.80
2019-03-15T21:45:40.839Z,90.80
2019-03-15T21:48:09.643Z,90.80
2019-03-15T21:50:38.541Z,90.80
2019-03-15T21:53:07.860Z,90.80
2019-03-15T21:55:36.778Z,90.60
2019-03-15T21:58:26.556Z,90.60
2019-03-15T22:07:14.218Z,90.70
2019-03-15T22:09:57.639Z,91.00
2019-03-15T22:12:30.496Z,91.00
2019-03-15T22:17:51.463Z,91.30
2019-03-15T22:20:20.771Z,91.50
2019-03-15T22:22:52.887Z,91.50
2019-03-15T22:25:23.380Z,91.50
2019-03-15T22:27:53.615Z,91.40
2019-03-15T22:30:25.300Z,91.30
2019-03-15T22:32:54.314Z,91.30
2019-03-15T22:35:23.092Z,91.00
2019-03-15T22:37:52.011Z,91.00
2019-03-15T22:40:23.298Z,90.80
2019-03-15T22:42:53.542Z,90.80
2019-03-15T22:45:24.749Z,90.40
2019-03-15T22:47:54.133Z,90.10
2019-03-15T22:50:29.070Z,90.40
2019-03-15T22:52:58.085Z,90.30
2019-03-15T22:55:28.808Z,90.50
2019-03-15T22:58:00.297Z,90.60
2019-03-15T23:00:30.930Z,90.50
2019-03-15T23:03:00.126Z,90.70
2019-03-15T23:05:29.589Z,91.10
2019-03-15T23:07:58.426Z,90.80
2019-03-15T23:10:27.320Z,90.80
2019-03-15T23:12:56.162Z,90.60
2019-03-15T23:15:26.535Z,90.80
2019-03-15T23:17:56.461Z,90.80
2019-03-15T23:20:26.637Z,91.00
2019-03-15T23:22:55.381Z,91.00
2019-03-15T23:25:24.213Z,90.90
2019-03-15T23:27:53.032Z,90.60
2019-03-15T23:30:21.841Z,90.60
2019-03-15T23:32:51.319Z,90.60
2019-03-15T23:35:20.367Z,90.80
2019-03-15T23:37:49.165Z,90.90
2019-03-15T23:40:19.271Z,90.80
2019-03-15T23:42:48.222Z,90.90
2019-03-15T23:45:17.032Z,90.90
2019-03-15T23:47:45.849Z,91.00
2019-03-15T23:50:15.999Z,91.00
2019-03-15T23:52:44.829Z,90.90
2019-03-15T23:55:13.645Z,91.10
2019-03-15T23:57:42.574Z,91.20
